createdAt,value
2018-03-03T00:01:03.383Z,100247.70
2018-03-03T00:03:32.061Z,100251.39
2018-03-03T00:06:00.736Z,100259.56
2018-03-03T00:08:29.614Z,100269.28
2018-03-03T00:10:58.242Z,100271.41
2018-03-03T00:13:29.834Z,100268.19
2018-03-03T00:15:59.796Z,100258.89
2018-03-03T00:18:31.311Z,100268.66
2018-03-03T00:21:01.497Z,100275.64
2018-03-03T00:23:31.989Z,100274.30
2018-03-03T00:26:01.938Z,100270.27
2018-03-03T00:28:32.465Z,100265.58
2018-03-03T00:31:04.347Z,100260.44
2018-03-03T00:33:33.685Z,100267.13
2018-03-03T00:36:04.035Z,100268.36
2018-03-03T00:38:34.088Z,100282.83
2018-03-03T00:41:09.576Z,100267.41
2018-03-03T00:43:38.600Z,100271.98
2018-03-03T00:46:08.395Z,100271.77
2018-03-03T00:48:37.676Z,100282.41
2018-03-03T00:51:07.798Z,100285.16
2018-03-03T00:53:36.987Z,100288.14
2018-03-03T00:56:05.622Z,100283.40
2018-03-03T00:58:34.182Z,100288.97
2018-03-03T01:01:02.877Z,100295.33
2018-03-03T01:03:31.317Z,100291.80
2018-03-03T01:06:00.068Z,100291.14
2018-03-03T01:08:28.565Z,100280.51
2018-03-03T01:10:58.102Z,100285.08
2018-03-03T01:13:27.498Z,100285.53
2018-03-03T01:15:56.377Z,100295.13
2018-03-03T01:18:25.069Z,100288.32
2018-03-03T01:20:53.899Z,100283.50
2018-03-03T01:23:22.505Z,100280.84
2018-03-03T01:25:51.438Z,100279.43
2018-03-03T01:28:20.959Z,100276.77
2018-03-03T01:30:49.830Z,100274.99
2018-03-03T01:33:19.271Z,100277.19
2018-03-03T01:35:48.005Z,100276.03
2018-03-03T01:38:16.812Z,100281.37
2018-03-03T01:40:45.323Z,100283.80
2018-03-03T01:43:14.023Z,100293.92
2018-03-03T01:45:43.144Z,100287.65
2018-03-03T01:48:11.794Z,100278.69
2018-03-03T01:50:40.282Z,100279.12
2018-03-03T01:53:09.033Z,100277.14
2018-03-03T01:55:37.662Z,100279.47
2018-03-03T01:58:06.349Z,100280.46
2018-03-03T02:00:34.827Z,100275.31
2018-03-03T02:03:03.487Z,100269.53
2018-03-03T02:05:32.181Z,100270.17
2018-03-03T02:08:00.741Z,100273.41
2018-03-03T02:10:29.457Z,100274.25
2018-03-03T02:12:58.883Z,100266.39
2018-03-03T02:15:27.367Z,100268.13
2018-03-03T02:17:55.857Z,100263.24
2018-03-03T02:20:24.498Z,100261.48
2018-03-03T02:22:53.075Z,100254.90
2018-03-03T02:25:21.698Z,100259.61
2018-03-03T02:27:50.153Z,100251.16
2018-03-03T02:30:18.679Z,100248.96
2018-03-03T02:32:47.148Z,100255.95
2018-03-03T02:35:15.604Z,100257.31
2018-03-03T02:37:44.267Z,100258.48
2018-03-03T02:40:12.837Z,100252.73
2018-03-03T02:42:41.431Z,100259.77
2018-03-03T02:45:09.910Z,100254.27
2018-03-03T02:47:38.360Z,100261.37
2018-03-03T02:50:06.920Z,100255.73
2018-03-03T02:52:35.406Z,100257.83
2018-03-03T02:55:04.105Z,100249.25
2018-03-03T02:57:32.517Z,100247.42
2018-03-03T03:00:01.190Z,100255.44
2018-03-03T03:02:29.675Z,100255.92
2018-03-03T03:04:58.159Z,100255.13
2018-03-03T03:07:26.894Z,100256.48
2018-03-03T03:09:55.617Z,100251.39
2018-03-03T03:12:24.228Z,100256.66
2018-03-03T03:14:52.696Z,100260.27
2018-03-03T03:17:21.187Z,100267.96
2018-03-03T03:19:49.631Z,100256.91
2018-03-03T03:22:18.125Z,100256.48
2018-03-03T03:24:46.847Z,100260.69
2018-03-03T03:27:15.572Z,100256.82
2018-03-03T03:29:44.281Z,100247.84
2018-03-03T03:32:13.147Z,100252.95
2018-03-03T03:34:41.699Z,100248.14
2018-03-03T03:37:10.170Z,100250.25
2018-03-03T03:39:38.814Z,100249.00
2018-03-03T03:42:07.459Z,100250.08
2018-03-03T03:44:36.103Z,100253.78
2018-03-03T03:47:05.003Z,100248.25
2018-03-03T03:49:33.698Z,100257.09
2018-03-03T03:52:02.593Z,100266.91
2018-03-03T03:54:31.430Z,100258.03
2018-03-03T03:56:59.962Z,100267.99
2018-03-03T03:59:28.450Z,100263.52
2018-03-03T04:01:57.132Z,100264.22
2018-03-03T04:04:25.785Z,100270.13
2018-03-03T04:06:54.515Z,100275.52
2018-03-03T04:09:23.056Z,100269.44
2018-03-03T04:11:51.802Z,100272.69
2018-03-03T04:14:20.303Z,100270.62
2018-03-03T04:16:48.767Z,100270.45
2018-03-03T04:19:17.347Z,100264.34
2018-03-03T04:21:45.844Z,100261.53
2018-03-03T04:24:14.544Z,100262.09
2018-03-03T04:26:43.218Z,100264.99
2018-03-03T04:29:12.072Z,100265.95
2018-03-03T04:31:40.615Z,100259.36
2018-03-03T04:34:09.056Z,100262.11
2018-03-03T04:36:38.003Z,100273.45
2018-03-03T04:39:06.519Z,100273.30
2018-03-03T04:41:35.147Z,100272.39
2018-03-03T04:44:03.696Z,100272.44
2018-03-03T04:46:32.685Z,100266.48
2018-03-03T04:49:01.358Z,100266.64
2018-03-03T04:51:29.882Z,100265.02
2018-03-03T04:53:58.582Z,100267.83
2018-03-03T04:56:27.184Z,100259.40
2018-03-03T04:58:56.066Z,100255.91
2018-03-03T05:04:20.336Z,100254.87
2018-03-03T05:06:49.647Z,100249.32
2018-03-03T05:09:18.455Z,100252.12
2018-03-03T05:11:47.613Z,100252.70
2018-03-03T05:14:16.721Z,100253.78
2018-03-03T05:16:45.717Z,100255.56
2018-03-03T05:19:15.639Z,100250.69
2018-03-03T05:21:47.473Z,100246.05
2018-03-03T05:24:16.693Z,100248.02
2018-03-03T05:26:46.027Z,100250.06
2018-03-03T05:29:15.634Z,100247.51
2018-03-03T05:31:44.817Z,100256.91
2018-03-03T05:34:14.616Z,100254.20
2018-03-03T05:36:43.905Z,100255.28
2018-03-03T05:39:14.318Z,100246.02
2018-03-03T05:41:43.230Z,100258.60
2018-03-03T05:44:12.591Z,100250.42
2018-03-03T05:46:42.336Z,100252.20
2018-03-03T05:49:11.377Z,100260.66
2018-03-03T05:51:40.433Z,100261.28
2018-03-03T05:54:09.162Z,100270.36
2018-03-03T05:56:38.287Z,100261.84
2018-03-03T05:59:07.511Z,100267.36
2018-03-03T06:01:36.338Z,100256.22
2018-03-03T06:04:05.140Z,100255.98
2018-03-03T06:06:34.478Z,100262.49
2018-03-03T06:09:03.570Z,100254.53
2018-03-03T06:11:32.492Z,100258.84
2018-03-03T06:14:01.623Z,100249.01
2018-03-03T06:16:30.397Z,100254.69
2018-03-03T06:18:59.241Z,100255.16
2018-03-03T06:21:28.011Z,100250.76
2018-03-03T06:23:56.833Z,100248.27
2018-03-03T06:26:25.535Z,100251.30
2018-03-03T06:28:55.263Z,100249.69
2018-03-03T06:31:24.196Z,100251.19
2018-03-03T06:33:53.221Z,100246.66
2018-03-03T06:36:22.188Z,100244.67
2018-03-03T06:38:51.036Z,100251.88
2018-03-03T06:41:19.947Z,100249.10
2018-03-03T06:43:48.854Z,100245.77
2018-03-03T06:46:17.820Z,100241.50
2018-03-03T06:48:46.720Z,100248.09
2018-03-03T06:51:16.070Z,100245.60
2018-03-03T06:53:45.043Z,100247.00
2018-03-03T06:56:14.130Z,100244.52
2018-03-03T06:58:43.216Z,100237.25
2018-03-03T07:01:12.321Z,100241.91
2018-03-03T07:03:41.199Z,100237.31
2018-03-03T07:06:10.127Z,100250.71
2018-03-03T07:08:39.182Z,100249.52
2018-03-03T07:11:08.286Z,100249.38
2018-03-03T07:13:37.227Z,100247.34
2018-03-03T07:16:06.471Z,100261.55
2018-03-03T07:18:35.237Z,100255.38
2018-03-03T07:21:04.107Z,100249.56
2018-03-03T07:23:32.834Z,100249.36
2018-03-03T07:26:01.986Z,100252.50
2018-03-03T07:28:31.137Z,100258.72
2018-03-03T07:31:00.029Z,100252.75
2018-03-03T07:33:28.913Z,100258.64
2018-03-03T07:35:57.814Z,100255.95
2018-03-03T07:38:26.720Z,100255.27
2018-03-03T07:40:55.585Z,100246.95
2018-03-03T07:43:24.557Z,100248.83
2018-03-03T07:45:53.774Z,100253.32
2018-03-03T07:48:22.866Z,100249.73
2018-03-03T07:50:51.618Z,100247.48
2018-03-03T07:53:20.678Z,100250.75
2018-03-03T07:55:49.572Z,100241.95
2018-03-03T07:58:27.462Z,100237.68
2018-03-03T08:00:56.277Z,100245.98
2018-03-03T08:03:25.421Z,100237.03
2018-03-03T08:05:54.581Z,100236.54
2018-03-03T08:08:23.492Z,100232.88
2018-03-03T08:10:52.308Z,100235.70
2018-03-03T08:13:20.962Z,100238.84
2018-03-03T08:15:50.294Z,100233.52
2018-03-03T08:18:19.117Z,100232.57
2018-03-03T08:20:48.281Z,100227.67
2018-03-03T08:23:17.942Z,100236.58
2018-03-03T08:25:46.876Z,100229.42
2018-03-03T08:28:15.767Z,100227.42
2018-03-03T08:30:45.488Z,100228.45
2018-03-03T08:33:14.245Z,100232.19
2018-03-03T08:35:43.054Z,100232.56
2018-03-03T08:38:11.948Z,100237.92
2018-03-03T08:40:40.870Z,100231.02
2018-03-03T08:43:10.020Z,100231.33
2018-03-03T08:45:39.227Z,100229.56
2018-03-03T08:48:08.114Z,100236.19
2018-03-03T08:50:37.204Z,100236.33
2018-03-03T08:53:07.122Z,100226.58
2018-03-03T08:55:36.168Z,100231.78
2018-03-03T08:58:07.117Z,100231.63
2018-03-03T09:00:36.865Z,100226.48
2018-03-03T09:03:08.511Z,100235.57
2018-03-03T09:05:40.274Z,100228.74
2018-03-03T09:08:09.165Z,100221.13
2018-03-03T09:10:39.562Z,100219.17
2018-03-03T09:13:10.173Z,100219.42
2018-03-03T09:15:39.211Z,100224.33
2018-03-03T09:18:08.012Z,100227.53
2018-03-03T09:20:37.330Z,100227.31
2018-03-03T09:23:06.804Z,100225.61
2018-03-03T09:25:35.662Z,100228.44
2018-03-03T09:28:04.593Z,100226.58
2018-03-03T09:30:33.898Z,100231.23
2018-03-03T09:33:03.082Z,100230.88
2018-03-03T09:35:31.956Z,100227.53
2018-03-03T09:38:00.980Z,100232.43
2018-03-03T09:40:30.463Z,100228.47
2018-03-03T09:42:59.725Z,100222.29
2018-03-03T09:45:29.526Z,100230.83
2018-03-03T09:47:58.981Z,100224.23
2018-03-03T09:50:28.299Z,100225.16
2018-03-03T09:52:57.712Z,100228.77
2018-03-03T09:55:26.906Z,100227.00
2018-03-03T09:57:56.827Z,100216.81
2018-03-03T10:00:25.786Z,100221.56
2018-03-03T10:02:54.537Z,100212.78
2018-03-03T10:05:23.686Z,100199.91
2018-03-03T10:07:52.835Z,100209.13
2018-03-03T10:10:21.888Z,100213.91
2018-03-03T10:12:51.184Z,100213.88
2018-03-03T10:15:20.473Z,100215.23
2018-03-03T10:17:49.374Z,100224.66
2018-03-03T10:20:18.675Z,100225.57
2018-03-03T10:22:48.579Z,100220.72
2018-03-03T10:25:17.861Z,100207.14
2018-03-03T10:27:46.983Z,100202.91
2018-03-03T10:30:16.071Z,100202.98
2018-03-03T10:32:44.999Z,100205.41
2018-03-03T10:35:14.327Z,100203.29
2018-03-03T10:37:44.186Z,100206.13
2018-03-03T10:40:13.696Z,100197.64
2018-03-03T10:42:42.601Z,100202.39
2018-03-03T10:45:12.084Z,100198.69
2018-03-03T10:47:41.227Z,100209.70
2018-03-03T10:50:10.719Z,100200.25
2018-03-03T10:52:39.576Z,100203.55
2018-03-03T10:55:08.831Z,100197.08
2018-03-03T10:57:37.664Z,100189.78
2018-03-03T11:00:07.365Z,100188.63
2018-03-03T11:02:37.393Z,100180.83
2018-03-03T11:05:06.334Z,100174.12
2018-03-03T11:07:35.228Z,100172.41
2018-03-03T11:10:04.697Z,100174.64
2018-03-03T11:12:35.954Z,100170.70
2018-03-03T11:15:05.545Z,100166.16
2018-03-03T11:17:35.240Z,100166.85
2018-03-03T11:20:05.839Z,100172.77
2018-03-03T11:22:34.865Z,100167.81
2018-03-03T11:25:04.981Z,100162.87
2018-03-03T11:27:34.572Z,100159.80
2018-03-03T11:30:03.315Z,100166.51
2018-03-03T11:32:32.882Z,100165.95
2018-03-03T11:35:01.767Z,100154.19
2018-03-03T11:37:30.971Z,100162.27
2018-03-03T11:39:59.969Z,100150.85
2018-03-03T11:42:29.876Z,100157.45
2018-03-03T11:44:59.097Z,100157.14
2018-03-03T11:47:28.073Z,100160.15
2018-03-03T11:49:56.956Z,100159.59
2018-03-03T11:52:26.246Z,100153.36
2018-03-03T11:54:55.372Z,100160.61
2018-03-03T11:57:24.440Z,100160.34
2018-03-03T11:59:53.288Z,100152.36
2018-03-03T12:02:22.393Z,100156.77
2018-03-03T12:04:51.800Z,100159.77
2018-03-03T12:07:20.819Z,100154.03
2018-03-03T12:09:49.920Z,100145.41
2018-03-03T12:12:18.802Z,100159.98
2018-03-03T12:14:47.910Z,100162.34
2018-03-03T12:17:17.642Z,100162.61
2018-03-03T12:19:47.318Z,100168.09
2018-03-03T12:22:16.449Z,100174.69
2018-03-03T12:24:45.504Z,100173.23
2018-03-03T12:27:15.223Z,100173.03
2018-03-03T12:29:44.116Z,100169.25
2018-03-03T12:32:12.983Z,100166.30
2018-03-03T12:34:41.908Z,100163.06
2018-03-03T12:37:12.389Z,100148.17
2018-03-03T12:39:41.273Z,100158.10
2018-03-03T12:42:10.416Z,100159.67
2018-03-03T12:44:39.081Z,100156.13
2018-03-03T12:47:08.398Z,100155.74
2018-03-03T12:49:38.288Z,100154.80
2018-03-03T12:52:07.822Z,100151.90
2018-03-03T12:54:38.817Z,100154.38
2018-03-03T12:57:08.914Z,100156.80
2018-03-03T12:59:37.759Z,100153.11
2018-03-03T13:02:08.023Z,100127.21
2018-03-03T13:04:37.394Z,100156.96
2018-03-03T13:07:06.468Z,100155.23
2018-03-03T13:09:39.891Z,100155.19
2018-03-03T13:12:08.768Z,100151.34
2018-03-03T13:14:38.272Z,100144.84
2018-03-03T13:17:07.678Z,100145.37
2018-03-03T13:19:37.981Z,100146.44
2018-03-03T13:22:06.997Z,100133.98
2018-03-03T13:24:36.381Z,100134.86
2018-03-03T13:27:05.244Z,100130.48
2018-03-03T13:29:34.277Z,100139.23
2018-03-03T13:32:03.985Z,100134.14
2018-03-03T13:34:32.766Z,100134.22
2018-03-03T13:37:02.180Z,100143.41
2018-03-03T13:39:31.645Z,100138.67
2018-03-03T13:42:00.819Z,100136.28
2018-03-03T13:44:29.724Z,100137.36
2018-03-03T13:46:58.758Z,100135.49
2018-03-03T13:49:27.658Z,100130.05
2018-03-03T13:51:56.560Z,100133.41
2018-03-03T13:54:25.800Z,100137.48
2018-03-03T13:56:54.705Z,100128.80
2018-03-03T13:59:25.114Z,100123.14
2018-03-03T14:01:54.163Z,100124.89
2018-03-03T14:04:23.667Z,100117.96
2018-03-03T14:06:52.901Z,100129.41
2018-03-03T14:09:22.265Z,100114.34
2018-03-03T14:11:51.420Z,100114.71
2018-03-03T14:14:20.296Z,100107.80
2018-03-03T14:16:49.403Z,100113.77
2018-03-03T14:19:18.894Z,100109.00
2018-03-03T14:21:47.940Z,100107.34
2018-03-03T14:24:17.023Z,100108.23
2018-03-03T14:26:47.161Z,100102.95
2018-03-03T14:29:16.855Z,100105.48
2018-03-03T14:31:46.182Z,100100.66
2018-03-03T14:34:14.960Z,100108.67
2018-03-03T14:36:49.593Z,100104.88
2018-03-03T14:39:24.303Z,100099.55
2018-03-03T14:41:53.440Z,100102.16
2018-03-03T14:44:22.489Z,100098.03
2018-03-03T14:46:52.405Z,100102.77
2018-03-03T14:49:22.732Z,100113.43
2018-03-03T14:51:52.039Z,100107.96
2018-03-03T14:54:20.714Z,100111.86
2018-03-03T14:56:49.998Z,100113.00
2018-03-03T14:59:19.113Z,100104.97
2018-03-03T15:01:48.431Z,100116.02
2018-03-03T15:04:17.310Z,100108.21
2018-03-03T15:06:46.196Z,100117.12
2018-03-03T15:09:15.091Z,100113.86
2018-03-03T15:11:44.040Z,100104.14
2018-03-03T15:14:13.503Z,100115.94
2018-03-03T15:16:42.479Z,100108.76
2018-03-03T15:19:11.612Z,100114.42
2018-03-03T15:21:41.006Z,100116.73
2018-03-03T15:24:09.792Z,100113.64
2018-03-03T15:26:38.708Z,100115.05
2018-03-03T15:29:08.448Z,100113.05
2018-03-03T15:31:37.390Z,100118.49
2018-03-03T15:34:06.247Z,100115.75
2018-03-03T15:36:35.069Z,100118.38
2018-03-03T15:39:04.335Z,100119.86
2018-03-03T15:41:36.811Z,100120.30
2018-03-03T15:44:05.702Z,100121.89
2018-03-03T15:46:35.411Z,100124.50
2018-03-03T15:49:04.509Z,100127.63
2018-03-03T15:51:34.422Z,100132.02
2018-03-03T15:54:03.657Z,100139.53
2018-03-03T15:56:32.964Z,100129.53
2018-03-03T15:59:02.086Z,100136.80
2018-03-03T16:01:31.026Z,100133.45
2018-03-03T16:04:00.090Z,100138.09
2018-03-03T16:06:28.910Z,100135.09
2018-03-03T16:08:58.057Z,100133.56
2018-03-03T16:11:27.534Z,100132.28
2018-03-03T16:13:56.886Z,100137.15
2018-03-03T16:16:25.986Z,100136.06
2018-03-03T16:18:55.080Z,100130.41
2018-03-03T16:21:24.586Z,100139.95
2018-03-03T16:23:53.723Z,100134.84
2018-03-03T16:26:22.570Z,100142.47
2018-03-03T16:28:51.862Z,100147.73
2018-03-03T16:31:21.034Z,100151.97
2018-03-03T16:33:50.266Z,100148.20
2018-03-03T16:36:19.373Z,100152.27
2018-03-03T16:38:48.868Z,100154.91
2018-03-03T16:41:18.794Z,100157.42
2018-03-03T16:43:47.664Z,100165.06
2018-03-03T16:46:16.767Z,100162.13
2018-03-03T16:48:45.446Z,100161.02
2018-03-03T16:51:14.654Z,100166.89
2018-03-03T16:53:43.658Z,100170.10
2018-03-03T16:56:12.688Z,100166.65
2018-03-03T16:58:42.172Z,100176.53
2018-03-03T17:01:11.115Z,100177.81
2018-03-03T17:03:40.974Z,100173.27
2018-03-03T17:06:10.850Z,100173.27
2018-03-03T17:08:42.003Z,100177.40
2018-03-03T17:11:12.527Z,100182.94
2018-03-03T17:13:41.525Z,100172.17
2018-03-03T17:16:10.729Z,100178.64
2018-03-03T17:18:39.875Z,100178.47
2018-03-03T17:21:08.730Z,100189.57
2018-03-03T17:23:38.002Z,100184.62
2018-03-03T17:26:06.889Z,100181.28
2018-03-03T17:28:36.197Z,100179.73
2018-03-03T17:31:05.666Z,100181.01
2018-03-03T17:33:34.590Z,100177.78
2018-03-03T17:36:03.893Z,100180.08
2018-03-03T17:38:33.798Z,100174.72
2018-03-03T17:41:03.516Z,100175.98
2018-03-03T17:43:32.611Z,100181.20
2018-03-03T17:46:01.898Z,100177.84
2018-03-03T17:48:31.204Z,100181.76
2018-03-03T17:51:00.521Z,100182.17
2018-03-03T17:53:29.410Z,100186.91
2018-03-03T17:55:58.657Z,100189.75
2018-03-03T17:58:27.924Z,100190.30
2018-03-03T18:00:57.535Z,100194.11
2018-03-03T18:03:27.203Z,100199.39
2018-03-03T18:05:56.313Z,100191.94
2018-03-03T18:08:25.612Z,100197.48
2018-03-03T18:10:56.207Z,100192.13
2018-03-03T18:13:32.213Z,100193.44
2018-03-03T18:16:01.403Z,100198.92
2018-03-03T18:18:31.244Z,100203.13
2018-03-03T18:21:00.202Z,100202.73
2018-03-03T18:23:30.619Z,100191.97
2018-03-03T18:26:00.493Z,100210.69
2018-03-03T18:28:36.487Z,100218.03
2018-03-03T18:31:05.568Z,100216.89
2018-03-03T18:33:35.048Z,100212.03
2018-03-03T18:36:04.046Z,100213.82
2018-03-03T18:38:35.416Z,100210.53
2018-03-03T18:41:04.792Z,100216.08
2018-03-03T18:43:34.523Z,100225.98
2018-03-03T18:46:04.513Z,100226.92
2018-03-03T18:48:33.632Z,100225.67
2018-03-03T18:51:02.759Z,100230.65
2018-03-03T18:53:32.788Z,100229.84
2018-03-03T18:56:02.958Z,100229.11
2018-03-03T18:58:38.133Z,100228.98
2018-03-03T19:01:08.501Z,100241.28
2018-03-03T19:03:40.043Z,100233.64
2018-03-03T19:06:09.059Z,100234.61
2018-03-03T19:08:45.063Z,100243.02
2018-03-03T19:11:15.184Z,100241.59
2018-03-03T19:13:43.873Z,100247.15
2018-03-03T19:16:13.048Z,100249.83
2018-03-03T19:18:41.855Z,100247.88
2018-03-03T19:21:10.747Z,100250.57
2018-03-03T19:23:39.794Z,100251.91
2018-03-03T19:26:08.732Z,100248.94
2018-03-03T19:28:37.602Z,100249.77
2018-03-03T19:31:06.637Z,100249.55
2018-03-03T19:33:36.126Z,100250.26
2018-03-03T19:36:05.120Z,100248.30
2018-03-03T19:38:34.299Z,100253.45
2018-03-03T19:41:03.452Z,100252.23
2018-03-03T19:43:32.705Z,100248.52
2018-03-03T19:46:01.595Z,100255.02
2018-03-03T19:48:30.511Z,100249.77
2018-03-03T19:50:59.379Z,100251.81
2018-03-03T19:53:29.114Z,100259.23
2018-03-03T19:55:58.148Z,100260.99
2018-03-03T19:58:27.392Z,100260.06
2018-03-03T20:00:56.362Z,100262.52
2018-03-03T20:03:27.524Z,100264.28
2018-03-03T20:05:56.843Z,100265.93
2018-03-03T20:08:25.598Z,100275.27
2018-03-03T20:10:54.389Z,100267.34
2018-03-03T20:13:23.283Z,100268.68
2018-03-03T20:15:52.594Z,100269.20
2018-03-03T20:18:21.636Z,100268.91
2018-03-03T20:20:50.568Z,100269.32
2018-03-03T20:23:19.334Z,100269.20
2018-03-03T20:25:48.303Z,100268.69
2018-03-03T20:28:17.620Z,100269.51
2018-03-03T20:30:47.567Z,100275.57
2018-03-03T20:33:18.136Z,100274.14
2018-03-03T20:35:46.982Z,100271.87
2018-03-03T20:38:15.746Z,100273.52
2018-03-03T20:40:45.381Z,100275.47
2018-03-03T20:43:14.462Z,100277.95
2018-03-03T20:45:45.157Z,100281.44
2018-03-03T20:48:14.527Z,100282.25
2018-03-03T20:50:43.606Z,100280.19
2018-03-03T20:53:12.616Z,100279.58
2018-03-03T20:55:42.414Z,100286.77
2018-03-03T20:58:12.300Z,100278.23
2018-03-03T21:00:42.099Z,100278.75
2018-03-03T21:03:11.340Z,100277.52
2018-03-03T21:05:40.853Z,100279.46
2018-03-03T21:08:10.002Z,100288.72
2018-03-03T21:10:39.263Z,100290.47
2018-03-03T21:13:08.488Z,100285.95
2018-03-03T21:15:38.640Z,100282.33
2018-03-03T21:18:08.071Z,100294.78
2018-03-03T21:20:38.105Z,100290.80
2018-03-03T21:23:07.258Z,100286.56
2018-03-03T21:25:36.152Z,100284.81
2018-03-03T21:28:04.994Z,100286.34
2018-03-03T21:30:34.145Z,100291.38
2018-03-03T21:33:04.263Z,100297.44
2018-03-03T21:35:33.225Z,100301.09
2018-03-03T21:38:01.979Z,100307.17
2018-03-03T21:40:31.118Z,100309.02
2018-03-03T21:43:00.438Z,100306.95
2018-03-03T21:45:29.595Z,100307.75
2018-03-03T21:47:58.408Z,100308.04
2018-03-03T21:50:27.511Z,100314.94
2018-03-03T21:52:56.614Z,100315.55
2018-03-03T21:55:25.446Z,100317.91
2018-03-03T21:57:54.387Z,100321.53
2018-03-03T22:00:23.234Z,100319.43
2018-03-03T22:02:52.222Z,100321.97
2018-03-03T22:05:21.026Z,100327.22
2018-03-03T22:07:50.379Z,100318.92
2018-03-03T22:10:19.456Z,100323.39
2018-03-03T22:12:48.763Z,100312.89
2018-03-03T22:15:17.583Z,100314.55
2018-03-03T22:17:46.746Z,100314.83
2018-03-03T22:20:15.714Z,100318.61
2018-03-03T22:22:44.524Z,100316.86
2018-03-03T22:25:13.895Z,100316.48
2018-03-03T22:27:42.710Z,100314.70
2018-03-03T22:30:11.519Z,100317.78
2018-03-03T22:32:40.402Z,100314.51
2018-03-03T22:35:09.399Z,100314.74
2018-03-03T22:37:38.323Z,100314.56
2018-03-03T22:40:07.584Z,100314.09
2018-03-03T22:42:36.265Z,100310.45
2018-03-03T22:45:05.363Z,100314.70
2018-03-03T22:47:34.445Z,100315.84
2018-03-03T22:50:03.594Z,100303.41
2018-03-03T22:52:33.054Z,100303.91
2018-03-03T22:55:02.357Z,100299.17
2018-03-03T22:57:31.222Z,100304.84
2018-03-03T23:00:00.186Z,100307.14
2018-03-03T23:02:29.225Z,100308.52
2018-03-03T23:04:58.042Z,100298.84
2018-03-03T23:07:27.422Z,100299.16
2018-03-03T23:09:56.367Z,100299.01
2018-03-03T23:12:25.589Z,100302.61
2018-03-03T23:14:54.274Z,100301.85
2018-03-03T23:17:23.178Z,100305.78
2018-03-03T23:19:52.296Z,100295.70
2018-03-03T23:22:21.172Z,100300.67
2018-03-03T23:24:50.055Z,100296.47
2018-03-03T23:27:18.945Z,100297.63
2018-03-03T23:29:47.629Z,100277.87
2018-03-03T23:32:16.451Z,100306.13
2018-03-03T23:34:45.847Z,100305.95
2018-03-03T23:37:14.722Z,100298.86
2018-03-03T23:39:44.996Z,100308.86
2018-03-03T23:42:14.223Z,100303.72
2018-03-03T23:44:43.021Z,100306.36
2018-03-03T23:47:11.858Z,100302.17
2018-03-03T23:49:40.814Z,100298.05
2018-03-03T23:52:10.228Z,100294.23
2018-03-03T23:54:39.211Z,100298.16
2018-03-03T23:57:08.409Z,100305.63
2018-03-03T23:59:37.399Z,100317.63
